createdAt,value
2023-05-21T00:00:49.173Z,1009.10
2023-05-21T00:01:49.176Z,1009.06
2023-05-21T00:02:49.265Z,1009.11
2023-05-21T00:03:49.279Z,1009.05
2023-05-21T00:04:49.161Z,1009.06
2023-05-21T00:05:49.162Z,1009.06
2023-05-21T00:06:49.142Z,1009.04
2023-05-21T00:07:49.138Z,1009.06
2023-05-21T00:08:49.138Z,1009.03
2023-05-21T00:09:49.129Z,1009.04
2023-05-21T00:10:49.123Z,1009.03
2023-05-21T00:11:49.119Z,1009.07
2023-05-21T00:12:49.144Z,1009.04
2023-05-21T00:13:49.113Z,1009.00
2023-05-21T00:14:49.098Z,1009.00
2023-05-21T00:15:49.096Z,1008.94
2023-05-21T00:16:49.196Z,1008.93
2023-05-21T00:17:49.120Z,1008.89
2023-05-21T00:18:49.130Z,1008.87
2023-05-21T00:19:49.071Z,1008.87
2023-05-21T00:20:49.068Z,1008.81
2023-05-21T00:21:49.060Z,1008.81
2023-05-21T00:22:49.059Z,1008.81
2023-05-21T00:23:49.046Z,1008.82
2023-05-21T00:24:49.068Z,1008.84
2023-05-21T00:25:49.041Z,1008.77
2023-05-21T00:26:49.038Z,1008.84
2023-05-21T00:27:49.024Z,1008.80
2023-05-21T00:28:49.018Z,1008.81
2023-05-21T00:29:49.033Z,1008.82
2023-05-21T00:30:49.015Z,1008.76
2023-05-21T00:31:49.141Z,1008.77
2023-05-21T00:32:49.018Z,1008.76
2023-05-21T00:33:48.994Z,1008.74
2023-05-21T00:34:48.992Z,1008.75
2023-05-21T00:35:48.986Z,1008.75
2023-05-21T00:36:48.977Z,1008.72
2023-05-21T00:37:48.973Z,1008.73
2023-05-21T00:38:48.968Z,1008.70
2023-05-21T00:39:48.969Z,1008.71
2023-05-21T00:40:48.955Z,1008.72
2023-05-21T00:41:48.945Z,1008.74
2023-05-21T00:42:48.942Z,1008.69
2023-05-21T00:43:48.937Z,1008.66
2023-05-21T00:44:48.933Z,1008.66
2023-05-21T00:45:48.933Z,1008.60
2023-05-21T00:46:49.005Z,1008.61
2023-05-21T00:47:48.945Z,1008.59
2023-05-21T00:48:48.911Z,1008.56
2023-05-21T00:49:48.915Z,1008.58
2023-05-21T00:50:48.901Z,1008.55
2023-05-21T00:51:48.894Z,1008.56
2023-05-21T00:52:48.905Z,1008.55
2023-05-21T00:53:48.881Z,1008.59
2023-05-21T00:54:48.876Z,1008.60
2023-05-21T00:55:48.878Z,1008.61
2023-05-21T00:56:48.863Z,1008.59
2023-05-21T00:57:48.862Z,1008.59
2023-05-21T00:58:48.867Z,1008.58
2023-05-21T00:59:48.852Z,1008.56
2023-05-21T01:00:48.851Z,1008.59
2023-05-21T01:01:48.877Z,1008.60
2023-05-21T01:02:48.911Z,1008.55
2023-05-21T01:03:49.046Z,1008.57
2023-05-21T01:04:48.813Z,1008.58
2023-05-21T01:05:48.815Z,1008.58
2023-05-21T01:06:48.808Z,1008.52
2023-05-21T01:07:48.806Z,1008.51
2023-05-21T01:08:48.815Z,1008.53
2023-05-21T01:09:48.784Z,1008.58
2023-05-21T01:10:48.792Z,1008.52
2023-05-21T01:11:48.787Z,1008.56
2023-05-21T01:12:48.767Z,1008.59
2023-05-21T01:13:48.770Z,1008.57
2023-05-21T01:14:48.760Z,1008.56
2023-05-21T01:15:48.763Z,1008.56
2023-05-21T01:16:48.777Z,1008.55
2023-05-21T01:17:48.819Z,1008.56
2023-05-21T01:18:48.837Z,1008.60
2023-05-21T01:19:48.759Z,1008.58
2023-05-21T01:20:48.728Z,1008.58
2023-05-21T01:21:48.723Z,1008.54
2023-05-21T01:22:48.724Z,1008.53
2023-05-21T01:23:48.714Z,1008.54
2023-05-21T01:24:48.709Z,1008.53
2023-05-21T01:25:48.697Z,1008.52
2023-05-21T01:26:48.694Z,1008.50
2023-05-21T01:27:48.691Z,1008.50
2023-05-21T01:28:48.685Z,1008.51
2023-05-21T01:29:48.678Z,1008.46
2023-05-21T01:30:48.694Z,1008.44
2023-05-21T01:31:48.666Z,1008.39
2023-05-21T01:32:48.798Z,1008.41
2023-05-21T01:33:48.755Z,1008.38
2023-05-21T01:34:48.648Z,1008.40
2023-05-21T01:35:48.649Z,1008.44
2023-05-21T01:36:48.644Z,1008.46
2023-05-21T01:37:48.646Z,1008.45
2023-05-21T01:38:48.629Z,1008.46
2023-05-21T01:39:48.645Z,1008.49
2023-05-21T01:40:48.621Z,1008.48
2023-05-21T01:41:48.617Z,1008.48
2023-05-21T01:42:48.605Z,1008.48
2023-05-21T01:43:48.613Z,1008.46
2023-05-21T01:44:48.598Z,1008.46
2023-05-21T01:45:48.595Z,1008.49
2023-05-21T01:46:48.688Z,1008.51
2023-05-21T01:47:48.659Z,1008.48
2023-05-21T01:48:48.575Z,1008.50
2023-05-21T01:49:48.577Z,1008.50
2023-05-21T01:50:48.615Z,1008.51
2023-05-21T01:51:48.561Z,1008.49
2023-05-21T01:52:48.546Z,1008.51
2023-05-21T01:53:48.550Z,1008.51
2023-05-21T01:54:48.544Z,1008.54
2023-05-21T01:55:48.548Z,1008.47
2023-05-21T01:56:48.549Z,1008.48
2023-05-21T01:57:48.528Z,1008.51
2023-05-21T01:58:48.522Z,1008.50
2023-05-21T01:59:48.521Z,1008.50
2023-05-21T02:00:48.514Z,1008.46
2023-05-21T02:01:48.548Z,1008.49
2023-05-21T02:02:48.611Z,1008.53
2023-05-21T02:03:48.514Z,1008.54
2023-05-21T02:04:48.489Z,1008.49
2023-05-21T02:05:48.507Z,1008.52
2023-05-21T02:06:48.478Z,1008.45
2023-05-21T02:07:48.472Z,1008.42
2023-05-21T02:08:48.484Z,1008.40
2023-05-21T02:09:48.461Z,1008.38
2023-05-21T02:10:48.463Z,1008.37
2023-05-21T02:11:48.450Z,1008.37
2023-05-21T02:12:48.452Z,1008.33
2023-05-21T02:13:48.447Z,1008.34
2023-05-21T02:14:48.440Z,1008.33
2023-05-21T02:15:48.492Z,1008.30
2023-05-21T02:16:48.426Z,1008.28
2023-05-21T02:17:48.448Z,1008.30
2023-05-21T02:18:48.477Z,1008.30
2023-05-21T02:19:48.407Z,1008.30
2023-05-21T02:20:48.405Z,1008.32
2023-05-21T02:21:48.393Z,1008.34
2023-05-21T02:22:48.382Z,1008.27
2023-05-21T02:23:48.381Z,1008.28
2023-05-21T02:24:48.383Z,1008.29
2023-05-21T02:25:48.382Z,1008.30
2023-05-21T02:26:48.369Z,1008.33
2023-05-21T02:27:48.360Z,1008.31
2023-05-21T02:28:48.349Z,1008.32
2023-05-21T02:29:48.349Z,1008.29
2023-05-21T02:30:48.343Z,1008.30
2023-05-21T02:31:48.346Z,1008.30
2023-05-21T02:32:48.369Z,1008.25
2023-05-21T02:33:48.352Z,1008.28
2023-05-21T02:34:48.324Z,1008.23
2023-05-21T02:35:48.317Z,1008.26
2023-05-21T02:36:48.320Z,1008.20
2023-05-21T02:37:48.309Z,1008.25
2023-05-21T02:38:48.304Z,1008.21
2023-05-21T02:39:48.293Z,1008.25
2023-05-21T02:40:48.293Z,1008.24
2023-05-21T02:41:48.282Z,1008.28
2023-05-21T02:42:48.279Z,1008.23
2023-05-21T02:43:48.277Z,1008.28
2023-05-21T02:44:48.274Z,1008.31
2023-05-21T02:45:48.287Z,1008.24
2023-05-21T02:46:48.254Z,1008.24
2023-05-21T02:47:48.278Z,1008.26
2023-05-21T02:48:48.252Z,1008.29
2023-05-21T02:49:48.254Z,1008.22
2023-05-21T02:50:48.234Z,1008.24
2023-05-21T02:51:48.234Z,1008.32
2023-05-21T02:52:48.225Z,1008.26
2023-05-21T02:53:48.213Z,1008.32
2023-05-21T02:54:48.210Z,1008.25
2023-05-21T02:55:48.206Z,1008.27
2023-05-21T02:56:48.197Z,1008.23
2023-05-21T02:57:48.193Z,1008.25
2023-05-21T02:58:48.190Z,1008.22
2023-05-21T02:59:48.179Z,1008.23
2023-05-21T03:00:48.180Z,1008.24
2023-05-21T03:01:48.260Z,1008.26
2023-05-21T03:02:48.357Z,1008.22
2023-05-21T03:03:48.198Z,1008.26
2023-05-21T03:04:48.151Z,1008.19
2023-05-21T03:05:48.147Z,1008.20
2023-05-21T03:06:48.135Z,1008.20
2023-05-21T03:07:48.152Z,1008.17
2023-05-21T03:08:48.142Z,1008.16
2023-05-21T03:09:48.126Z,1008.16
2023-05-21T03:10:48.119Z,1008.13
2023-05-21T03:11:48.146Z,1008.15
2023-05-21T03:12:48.113Z,1008.11
2023-05-21T03:13:48.136Z,1008.15
2023-05-21T03:14:48.114Z,1008.12
2023-05-21T03:15:48.107Z,1008.14
2023-05-21T03:16:48.123Z,1008.14
2023-05-21T03:17:48.113Z,1008.15
2023-05-21T03:18:48.098Z,1008.19
2023-05-21T03:19:48.071Z,1008.13
2023-05-21T03:20:48.070Z,1008.11
2023-05-21T03:21:48.056Z,1008.13
2023-05-21T03:22:48.045Z,1008.12
2023-05-21T03:23:48.040Z,1008.13
2023-05-21T03:24:48.067Z,1008.16
2023-05-21T03:25:48.042Z,1008.12
2023-05-21T03:26:48.061Z,1008.12
2023-05-21T03:27:48.047Z,1008.12
2023-05-21T03:28:48.053Z,1008.08
2023-05-21T03:29:48.022Z,1008.06
2023-05-21T03:30:48.022Z,1008.11
2023-05-21T03:31:48.065Z,1008.08
2023-05-21T03:32:48.057Z,1008.05
2023-05-21T03:33:48.008Z,1008.07
2023-05-21T03:34:48.006Z,1008.07
2023-05-21T03:35:47.972Z,1008.05
2023-05-21T03:36:48.004Z,1008.08
2023-05-21T03:37:47.990Z,1008.07
2023-05-21T03:38:47.974Z,1008.07
2023-05-21T03:39:47.961Z,1008.04
2023-05-21T03:40:47.950Z,1008.06
2023-05-21T03:41:47.968Z,1008.04
2023-05-21T03:42:47.969Z,1008.05
2023-05-21T03:43:47.950Z,1008.02
2023-05-21T03:44:47.963Z,1008.02
2023-05-21T03:45:47.952Z,1008.03
2023-05-21T03:46:47.913Z,1007.98
2023-05-21T03:47:47.999Z,1007.98
2023-05-21T03:48:47.913Z,1008.00
2023-05-21T03:49:47.945Z,1008.01
2023-05-21T03:50:47.902Z,1008.03
2023-05-21T03:51:47.884Z,1008.02
2023-05-21T03:52:47.887Z,1008.05
2023-05-21T03:53:47.874Z,1008.02
2023-05-21T03:54:47.869Z,1008.06
2023-05-21T03:55:47.871Z,1008.04
2023-05-21T03:56:47.868Z,1008.00
2023-05-21T03:57:47.859Z,1007.98
2023-05-21T03:58:47.851Z,1007.97
2023-05-21T03:59:47.851Z,1007.95
2023-05-21T04:00:47.837Z,1007.95
2023-05-21T04:01:47.850Z,1007.95
2023-05-21T04:02:47.990Z,1007.94
2023-05-21T04:03:47.911Z,1007.94
2023-05-21T04:04:47.897Z,1007.93
2023-05-21T04:05:47.807Z,1007.93
2023-05-21T04:06:47.835Z,1007.97
2023-05-21T04:07:47.794Z,1007.95
2023-05-21T04:08:47.795Z,1007.94
2023-05-21T04:09:47.797Z,1007.98
2023-05-21T04:10:47.785Z,1007.98
2023-05-21T04:11:47.775Z,1007.98
2023-05-21T04:12:47.776Z,1008.03
2023-05-21T04:13:47.768Z,1008.02
2023-05-21T04:14:47.774Z,1008.04
2023-05-21T04:15:47.768Z,1008.05
2023-05-21T04:16:47.746Z,1008.06
2023-05-21T04:17:47.819Z,1008.07
2023-05-21T04:18:47.802Z,1008.05
2023-05-21T04:19:47.732Z,1008.06
2023-05-21T04:20:47.725Z,1008.02
2023-05-21T04:21:47.722Z,1008.06
2023-05-21T04:22:47.718Z,1008.07
2023-05-21T04:23:47.698Z,1008.03
2023-05-21T04:24:47.696Z,1008.08
2023-05-21T04:25:47.699Z,1008.09
2023-05-21T04:26:47.687Z,1008.10
2023-05-21T04:27:47.770Z,1008.11
2023-05-21T04:28:47.708Z,1008.12
2023-05-21T04:29:49.512Z,1008.12
2023-05-21T04:30:47.682Z,1008.13
2023-05-21T04:31:47.744Z,1008.15
2023-05-21T04:32:47.663Z,1008.10
2023-05-21T04:33:47.666Z,1008.12
2023-05-21T04:34:47.667Z,1008.14
2023-05-21T04:35:47.652Z,1008.12
2023-05-21T04:36:47.627Z,1008.10
2023-05-21T04:37:47.641Z,1008.09
2023-05-21T04:38:47.627Z,1008.11
2023-05-21T04:39:47.609Z,1008.10
2023-05-21T04:40:47.611Z,1008.15
2023-05-21T04:41:47.597Z,1008.16
2023-05-21T04:42:47.601Z,1008.16
2023-05-21T04:43:47.591Z,1008.19
2023-05-21T04:44:47.588Z,1008.19
2023-05-21T04:45:47.581Z,1008.16
2023-05-21T04:46:47.617Z,1008.17
2023-05-21T04:47:47.615Z,1008.20
2023-05-21T04:48:47.565Z,1008.22
2023-05-21T04:49:47.564Z,1008.25
2023-05-21T04:50:47.555Z,1008.24
2023-05-21T04:51:47.552Z,1008.22
2023-05-21T04:52:47.550Z,1008.26
2023-05-21T04:53:47.572Z,1008.22
2023-05-21T04:54:47.532Z,1008.19
2023-05-21T04:55:47.528Z,1008.19
2023-05-21T04:56:47.518Z,1008.17
2023-05-21T04:57:47.539Z,1008.20
2023-05-21T04:58:47.509Z,1008.17
2023-05-21T04:59:47.512Z,1008.21
2023-05-21T05:00:47.588Z,1008.24
2023-05-21T05:01:47.510Z,1008.23
2023-05-21T05:02:47.544Z,1008.27
2023-05-21T05:03:47.510Z,1008.29
2023-05-21T05:04:47.480Z,1008.27
2023-05-21T05:05:47.497Z,1008.26
2023-05-21T05:06:47.461Z,1008.28
2023-05-21T05:07:47.478Z,1008.31
2023-05-21T05:08:47.466Z,1008.31
2023-05-21T05:09:47.475Z,1008.32
2023-05-21T05:10:47.448Z,1008.33
2023-05-21T05:11:47.431Z,1008.36
2023-05-21T05:12:47.427Z,1008.38
2023-05-21T05:13:47.452Z,1008.36
2023-05-21T05:14:47.422Z,1008.31
2023-05-21T05:15:49.601Z,1008.31
2023-05-21T05:16:47.432Z,1008.28
2023-05-21T05:17:47.445Z,1008.27
2023-05-21T05:18:47.401Z,1008.26
2023-05-21T05:19:47.388Z,1008.26
2023-05-21T05:20:47.388Z,1008.21
2023-05-21T05:21:47.386Z,1008.20
2023-05-21T05:22:47.414Z,1008.20
2023-05-21T05:23:47.370Z,1008.20
2023-05-21T05:24:47.372Z,1008.22
2023-05-21T05:25:47.371Z,1008.20
2023-05-21T05:26:47.354Z,1008.19
2023-05-21T05:27:47.349Z,1008.19
2023-05-21T05:28:47.344Z,1008.16
2023-05-21T05:29:47.331Z,1008.13
2023-05-21T05:30:47.354Z,1008.19
2023-05-21T05:31:47.323Z,1008.16
2023-05-21T05:32:47.344Z,1008.23
2023-05-21T05:33:47.316Z,1008.19
2023-05-21T05:34:47.320Z,1008.15
2023-05-21T05:35:47.304Z,1008.15
2023-05-21T05:36:47.304Z,1008.15
2023-05-21T05:37:47.294Z,1008.16
2023-05-21T05:38:47.283Z,1008.16
2023-05-21T05:39:47.288Z,1008.10
2023-05-21T05:40:47.278Z,1008.16
2023-05-21T05:41:47.273Z,1008.18
2023-05-21T05:42:47.265Z,1008.12
2023-05-21T05:43:47.256Z,1008.13
2023-05-21T05:44:47.252Z,1008.14
2023-05-21T05:45:47.355Z,1008.14
2023-05-21T05:46:47.277Z,1008.17
2023-05-21T05:47:47.293Z,1008.21
2023-05-21T05:48:47.231Z,1008.20
2023-05-21T05:49:47.214Z,1008.19
2023-05-21T05:50:47.218Z,1008.20
2023-05-21T05:51:47.213Z,1008.19
2023-05-21T05:52:47.206Z,1008.19
2023-05-21T05:53:47.198Z,1008.18
2023-05-21T05:54:47.209Z,1008.18
2023-05-21T05:55:47.189Z,1008.17
2023-05-21T05:56:47.191Z,1008.16
2023-05-21T05:57:47.181Z,1008.18
2023-05-21T05:58:47.182Z,1008.21
2023-05-21T05:59:47.166Z,1008.22
2023-05-21T06:00:47.168Z,1008.25
2023-05-21T06:01:47.164Z,1008.25
2023-05-21T06:02:47.193Z,1008.25
2023-05-21T06:03:47.379Z,1008.27
2023-05-21T06:04:47.145Z,1008.28
2023-05-21T06:05:47.158Z,1008.23
2023-05-21T06:06:47.131Z,1008.24
2023-05-21T06:07:47.132Z,1008.23
2023-05-21T06:08:47.123Z,1008.19
2023-05-21T06:09:47.117Z,1008.22
2023-05-21T06:10:47.108Z,1008.21
2023-05-21T06:11:47.113Z,1008.22
2023-05-21T06:12:47.109Z,1008.20
2023-05-21T06:13:47.099Z,1008.20
2023-05-21T06:14:47.082Z,1008.17
2023-05-21T06:15:47.098Z,1008.19
2023-05-21T06:16:47.084Z,1008.22
2023-05-21T06:17:47.151Z,1008.19
2023-05-21T06:18:47.094Z,1008.22
2023-05-21T06:19:47.063Z,1008.25
2023-05-21T06:20:47.059Z,1008.26
2023-05-21T06:21:47.058Z,1008.26
2023-05-21T06:22:47.044Z,1008.26
2023-05-21T06:23:47.048Z,1008.29
2023-05-21T06:24:47.045Z,1008.27
2023-05-21T06:25:47.046Z,1008.30
2023-05-21T06:26:47.034Z,1008.25
2023-05-21T06:27:47.029Z,1008.24
2023-05-21T06:28:47.015Z,1008.23
2023-05-21T06:29:47.019Z,1008.28
2023-05-21T06:30:47.013Z,1008.28
2023-05-21T06:31:46.998Z,1008.29
2023-05-21T06:32:47.034Z,1008.31
2023-05-21T06:33:47.131Z,1008.33
2023-05-21T06:34:47.013Z,1008.35
2023-05-21T06:35:47.018Z,1008.30
2023-05-21T06:36:47.000Z,1008.28
2023-05-21T06:37:46.978Z,1008.25
2023-05-21T06:38:46.969Z,1008.28
2023-05-21T06:39:46.961Z,1008.31
2023-05-21T06:40:46.966Z,1008.24
2023-05-21T06:41:46.956Z,1008.27
2023-05-21T06:42:46.947Z,1008.26
2023-05-21T06:43:46.957Z,1008.24
2023-05-21T06:44:46.958Z,1008.23
2023-05-21T06:45:46.965Z,1008.25
2023-05-21T06:46:46.932Z,1008.20
2023-05-21T06:47:47.004Z,1008.25
2023-05-21T06:48:46.922Z,1008.21
2023-05-21T06:49:46.929Z,1008.22
2023-05-21T06:50:46.917Z,1008.21
2023-05-21T06:51:46.909Z,1008.25
2023-05-21T06:52:46.909Z,1008.24
2023-05-21T06:53:46.905Z,1008.30
2023-05-21T06:54:46.903Z,1008.32
2023-05-21T06:55:46.890Z,1008.31
2023-05-21T06:56:46.887Z,1008.33
2023-05-21T06:57:46.883Z,1008.29
2023-05-21T06:58:46.880Z,1008.31
2023-05-21T06:59:46.880Z,1008.26
2023-05-21T07:00:46.897Z,1008.27
2023-05-21T07:01:46.880Z,1008.27
2023-05-21T07:02:46.977Z,1008.26
2023-05-21T07:03:46.902Z,1008.33
2023-05-21T07:04:46.856Z,1008.32
2023-05-21T07:05:46.844Z,1008.35
2023-05-21T07:06:46.892Z,1008.36
2023-05-21T07:07:46.841Z,1008.35
2023-05-21T07:08:46.832Z,1008.38
2023-05-21T07:09:46.823Z,1008.34
2023-05-21T07:10:46.815Z,1008.33
2023-05-21T07:11:46.820Z,1008.30
2023-05-21T07:12:46.816Z,1008.31
2023-05-21T07:13:46.812Z,1008.28
2023-05-21T07:15:07.810Z,1008.27
2023-05-21T07:15:46.800Z,1008.27
2023-05-21T07:16:46.867Z,1008.28
2023-05-21T07:17:46.845Z,1008.25
2023-05-21T07:18:46.822Z,1008.26
2023-05-21T07:19:46.789Z,1008.22
2023-05-21T07:20:46.771Z,1008.20
2023-05-21T07:21:46.769Z,1008.18
2023-05-21T07:22:46.765Z,1008.19
2023-05-21T07:23:46.764Z,1008.15
2023-05-21T07:24:46.764Z,1008.15
2023-05-21T07:25:46.744Z,1008.14
2023-05-21T07:26:46.760Z,1008.15
2023-05-21T07:27:46.733Z,1008.16
2023-05-21T07:28:46.774Z,1008.20
2023-05-21T07:29:46.738Z,1008.22
2023-05-21T07:30:46.743Z,1008.19
2023-05-21T07:31:46.722Z,1008.23
2023-05-21T07:32:46.775Z,1008.25
2023-05-21T07:33:46.722Z,1008.25
2023-05-21T07:34:46.716Z,1008.24
2023-05-21T07:35:46.711Z,1008.23
2023-05-21T07:36:46.700Z,1008.25
2023-05-21T07:37:46.781Z,1008.25
2023-05-21T07:38:46.701Z,1008.20
2023-05-21T07:39:46.697Z,1008.20
2023-05-21T07:40:46.687Z,1008.22
2023-05-21T07:41:46.684Z,1008.20
2023-05-21T07:42:46.684Z,1008.19
2023-05-21T07:43:46.681Z,1008.19
2023-05-21T07:44:46.667Z,1008.19
2023-05-21T07:45:46.673Z,1008.16
2023-05-21T07:46:46.763Z,1008.22
2023-05-21T07:47:46.788Z,1008.20
2023-05-21T07:48:46.659Z,1008.16
2023-05-21T07:49:46.651Z,1008.16
2023-05-21T07:50:46.651Z,1008.21
2023-05-21T07:51:46.722Z,1008.20
2023-05-21T07:52:46.662Z,1008.19
2023-05-21T07:53:46.641Z,1008.18
2023-05-21T07:54:46.628Z,1008.23
2023-05-21T07:55:46.632Z,1008.19
2023-05-21T07:56:46.637Z,1008.22
2023-05-21T07:57:46.625Z,1008.23
2023-05-21T07:58:46.616Z,1008.21
2023-05-21T07:59:46.661Z,1008.19
2023-05-21T08:00:46.611Z,1008.21
2023-05-21T08:01:46.608Z,1008.21
2023-05-21T08:02:46.676Z,1008.20
2023-05-21T08:03:46.755Z,1008.24
2023-05-21T08:04:46.633Z,1008.20
2023-05-21T08:05:46.600Z,1008.23
2023-05-21T08:06:46.585Z,1008.20
2023-05-21T08:07:46.583Z,1008.23
2023-05-21T08:08:46.583Z,1008.27
2023-05-21T08:09:46.578Z,1008.24
2023-05-21T08:10:46.568Z,1008.25
2023-05-21T08:11:46.574Z,1008.25
2023-05-21T08:12:46.569Z,1008.20
2023-05-21T08:13:46.576Z,1008.19
2023-05-21T08:14:46.567Z,1008.19
2023-05-21T08:15:46.559Z,1008.20
2023-05-21T08:16:46.655Z,1008.25
2023-05-21T08:17:46.602Z,1008.25
2023-05-21T08:18:46.633Z,1008.21
2023-05-21T08:19:46.543Z,1008.22
2023-05-21T08:20:46.530Z,1008.19
2023-05-21T08:21:46.537Z,1008.21
2023-05-21T08:22:46.527Z,1008.20
2023-05-21T08:23:46.526Z,1008.19
2023-05-21T08:24:46.554Z,1008.16
2023-05-21T08:25:46.520Z,1008.18
2023-05-21T08:26:46.525Z,1008.15
2023-05-21T08:27:46.522Z,1008.17
2023-05-21T08:28:46.509Z,1008.14
2023-05-21T08:29:46.599Z,1008.14
2023-05-21T08:30:46.503Z,1008.14
2023-05-21T08:31:46.521Z,1008.11
2023-05-21T08:32:46.529Z,1008.08
2023-05-21T08:33:46.496Z,1008.11
2023-05-21T08:34:46.513Z,1008.10
2023-05-21T08:35:46.484Z,1008.09
2023-05-21T08:36:46.485Z,1008.09
2023-05-21T08:37:46.490Z,1008.11
2023-05-21T08:38:46.471Z,1008.10
2023-05-21T08:39:46.470Z,1008.10
2023-05-21T08:40:46.480Z,1008.14
2023-05-21T08:41:46.464Z,1008.11
2023-05-21T08:42:46.464Z,1008.11
2023-05-21T08:43:48.591Z,1008.13
2023-05-21T08:44:46.462Z,1008.10
2023-05-21T08:45:46.460Z,1008.11
2023-05-21T08:46:46.457Z,1008.11
2023-05-21T08:47:46.512Z,1008.12
2023-05-21T08:48:46.443Z,1008.11
2023-05-21T08:49:46.438Z,1008.13
2023-05-21T08:50:46.443Z,1008.15
2023-05-21T08:51:46.440Z,1008.18
2023-05-21T08:52:46.433Z,1008.17
2023-05-21T08:53:46.426Z,1008.19
2023-05-21T08:54:46.421Z,1008.17
2023-05-21T08:55:46.424Z,1008.14
2023-05-21T08:56:46.420Z,1008.14
2023-05-21T08:57:46.419Z,1008.12
2023-05-21T08:58:46.479Z,1008.09
2023-05-21T08:59:46.437Z,1008.12
2023-05-21T09:00:46.408Z,1008.10
2023-05-21T09:01:46.441Z,1008.16
2023-05-21T09:02:46.493Z,1008.15
2023-05-21T09:03:46.419Z,1008.16
2023-05-21T09:04:46.487Z,1008.19
2023-05-21T09:05:46.385Z,1008.16
2023-05-21T09:06:46.391Z,1008.12
2023-05-21T09:07:46.385Z,1008.09
2023-05-21T09:08:46.397Z,1008.12
2023-05-21T09:09:46.386Z,1008.18
2023-05-21T09:10:46.393Z,1008.16
2023-05-21T09:11:46.385Z,1008.17
2023-05-21T09:12:46.370Z,1008.20
2023-05-21T09:13:46.375Z,1008.13
2023-05-21T09:14:46.374Z,1008.16
2023-05-21T09:15:46.371Z,1008.15
2023-05-21T09:16:46.379Z,1008.09
2023-05-21T09:17:46.402Z,1008.11
2023-05-21T09:18:46.418Z,1008.06
2023-05-21T09:19:46.363Z,1008.07
2023-05-21T09:20:46.367Z,1008.08
2023-05-21T09:21:46.376Z,1008.05
2023-05-21T09:22:46.366Z,1008.09
2023-05-21T09:23:46.363Z,1008.02
2023-05-21T09:24:46.359Z,1008.04
2023-05-21T09:25:46.375Z,1008.03
2023-05-21T09:26:46.371Z,1008.04
2023-05-21T09:27:46.351Z,1008.07
2023-05-21T09:28:46.353Z,1008.07
2023-05-21T09:29:46.365Z,1008.10
2023-05-21T09:30:46.378Z,1008.07
2023-05-21T09:31:46.554Z,1008.06
2023-05-21T09:32:46.372Z,1008.06
2023-05-21T09:33:46.358Z,1008.09
2023-05-21T09:34:46.355Z,1008.07
2023-05-21T09:35:46.358Z,1008.05
2023-05-21T09:36:46.347Z,1008.05
2023-05-21T09:37:46.361Z,1007.99
2023-05-21T09:38:46.346Z,1008.05
2023-05-21T09:39:46.345Z,1008.03
2023-05-21T09:40:46.353Z,1008.03
2023-05-21T09:41:46.359Z,1008.00
2023-05-21T09:42:46.377Z,1008.02
2023-05-21T09:43:46.342Z,1007.99
2023-05-21T09:44:46.358Z,1007.97
2023-05-21T09:45:46.351Z,1007.97
2023-05-21T09:46:46.389Z,1007.95
2023-05-21T09:47:46.437Z,1007.98
2023-05-21T09:48:46.359Z,1007.96
2023-05-21T09:49:46.339Z,1007.97
2023-05-21T09:50:46.383Z,1007.96
2023-05-21T09:51:46.349Z,1007.94
2023-05-21T09:52:46.341Z,1007.93
2023-05-21T09:53:46.348Z,1007.93
2023-05-21T09:54:46.357Z,1007.91
2023-05-21T09:55:46.368Z,1007.93
2023-05-21T09:56:46.347Z,1007.88
2023-05-21T09:57:47.571Z,1007.89
2023-05-21T09:58:46.366Z,1007.86
2023-05-21T09:59:46.354Z,1007.84
2023-05-21T10:00:46.349Z,1007.83
2023-05-21T10:01:46.386Z,1007.79
2023-05-21T10:02:46.431Z,1007.81
2023-05-21T10:03:47.292Z,1007.81
2023-05-21T10:04:46.404Z,1007.75
2023-05-21T10:05:46.362Z,1007.71
2023-05-21T10:06:46.361Z,1007.75
2023-05-21T10:07:46.395Z,1007.74
2023-05-21T10:08:46.371Z,1007.74
2023-05-21T10:09:46.363Z,1007.71
2023-05-21T10:10:46.370Z,1007.72
2023-05-21T10:11:46.395Z,1007.68
2023-05-21T10:12:46.374Z,1007.67
2023-05-21T10:13:46.380Z,1007.66
2023-05-21T10:14:46.377Z,1007.66
2023-05-21T10:15:47.390Z,1007.66
2023-05-21T10:16:46.418Z,1007.61
2023-05-21T10:17:46.430Z,1007.60
2023-05-21T10:18:46.433Z,1007.58
2023-05-21T10:19:46.395Z,1007.59
2023-05-21T10:20:46.391Z,1007.61
2023-05-21T10:21:46.392Z,1007.61
2023-05-21T10:22:46.408Z,1007.58
2023-05-21T10:23:46.399Z,1007.56
2023-05-21T10:24:46.410Z,1007.59
2023-05-21T10:25:46.449Z,1007.57
2023-05-21T10:26:46.414Z,1007.51
2023-05-21T10:27:46.415Z,1007.54
2023-05-21T10:28:46.418Z,1007.55
2023-05-21T10:29:46.421Z,1007.59
2023-05-21T10:30:46.447Z,1007.56
2023-05-21T10:31:46.457Z,1007.53
2023-05-21T10:32:46.521Z,1007.52
2023-05-21T10:33:46.431Z,1007.53
2023-05-21T10:34:46.440Z,1007.50
2023-05-21T10:35:46.432Z,1007.50
2023-05-21T10:36:46.463Z,1007.53
2023-05-21T10:37:46.463Z,1007.52
2023-05-21T10:38:46.447Z,1007.51
2023-05-21T10:39:46.449Z,1007.51
2023-05-21T10:40:46.453Z,1007.49
2023-05-21T10:41:46.466Z,1007.45
2023-05-21T10:42:46.464Z,1007.46
2023-05-21T10:43:46.483Z,1007.41
2023-05-21T10:44:46.480Z,1007.40
2023-05-21T10:45:46.539Z,1007.40
2023-05-21T10:46:46.493Z,1007.37
2023-05-21T10:47:46.556Z,1007.39
2023-05-21T10:48:46.488Z,1007.39
2023-05-21T10:49:46.506Z,1007.36
2023-05-21T10:50:46.499Z,1007.34
2023-05-21T10:51:46.506Z,1007.34
2023-05-21T10:52:46.503Z,1007.33
2023-05-21T10:53:46.531Z,1007.27
2023-05-21T10:54:46.519Z,1007.26
2023-05-21T10:55:46.515Z,1007.27
2023-05-21T10:56:46.526Z,1007.27
2023-05-21T10:57:46.528Z,1007.26
2023-05-21T10:58:46.535Z,1007.27
2023-05-21T10:59:46.538Z,1007.23
2023-05-21T11:00:46.549Z,1007.21
2023-05-21T11:01:46.675Z,1007.21
2023-05-21T11:02:46.664Z,1007.15
2023-05-21T11:03:46.592Z,1007.22
2023-05-21T11:04:46.559Z,1007.17
2023-05-21T11:05:46.568Z,1007.17
2023-05-21T11:06:46.604Z,1007.15
2023-05-21T11:07:46.583Z,1007.16
2023-05-21T11:08:46.593Z,1007.13
2023-05-21T11:09:46.583Z,1007.11
2023-05-21T11:10:46.601Z,1007.08
2023-05-21T11:11:46.619Z,1007.10
2023-05-21T11:12:46.599Z,1007.09
2023-05-21T11:13:46.600Z,1007.07
2023-05-21T11:14:46.612Z,1007.07
2023-05-21T11:15:46.604Z,1007.02
2023-05-21T11:16:46.657Z,1007.03
2023-05-21T11:17:46.662Z,1007.05
2023-05-21T11:18:46.708Z,1007.06
2023-05-21T11:19:46.633Z,1007.05
2023-05-21T11:20:46.631Z,1007.10
2023-05-21T11:21:46.628Z,1007.04
2023-05-21T11:22:46.633Z,1007.07
2023-05-21T11:23:46.641Z,1007.09
2023-05-21T11:24:47.427Z,1007.07
2023-05-21T11:25:46.656Z,1007.08
2023-05-21T11:26:46.658Z,1007.05
2023-05-21T11:27:46.674Z,1007.03
2023-05-21T11:28:46.661Z,1007.05
2023-05-21T11:29:46.661Z,1007.07
2023-05-21T11:30:46.659Z,1007.01
2023-05-21T11:31:46.790Z,1007.02
2023-05-21T11:32:46.715Z,1007.02
2023-05-21T11:33:46.672Z,1006.95
2023-05-21T11:34:46.681Z,1007.02
2023-05-21T11:35:46.843Z,1006.98
2023-05-21T11:36:46.681Z,1006.95
2023-05-21T11:37:46.694Z,1006.96
2023-05-21T11:38:46.706Z,1006.94
2023-05-21T11:39:46.690Z,1006.90
2023-05-21T11:40:46.702Z,1006.93
2023-05-21T11:41:46.696Z,1006.88
2023-05-21T11:42:46.695Z,1006.89
2023-05-21T11:43:46.691Z,1006.87
2023-05-21T11:44:46.707Z,1006.84
2023-05-21T11:45:46.703Z,1006.86
2023-05-21T11:46:46.762Z,1006.87
2023-05-21T11:47:46.751Z,1006.88
2023-05-21T11:48:46.706Z,1006.87
2023-05-21T11:49:46.707Z,1006.87
2023-05-21T11:50:46.719Z,1006.80
2023-05-21T11:51:46.712Z,1006.84
2023-05-21T11:52:46.731Z,1006.85
2023-05-21T11:53:46.714Z,1006.88
2023-05-21T11:54:46.712Z,1006.86
2023-05-21T11:55:46.728Z,1006.86
2023-05-21T11:56:46.720Z,1006.80
2023-05-21T11:57:46.716Z,1006.85
2023-05-21T11:58:46.721Z,1006.84
2023-05-21T11:59:46.742Z,1006.83
2023-05-21T12:00:46.721Z,1006.81
2023-05-21T12:01:46.723Z,1006.83
2023-05-21T12:02:46.842Z,1006.83
2023-05-21T12:03:46.835Z,1006.80
2023-05-21T12:04:46.741Z,1006.80
2023-05-21T12:05:46.846Z,1006.79